Startpagina
METAR-TAF:

METAR-TAF

Vliegvelden :

Talkeetna, Alaska, Verenigde Staten

breedte: 62-19-14N, lengte: 150-05-37W, hoogte: 109 m

Actueel weer

Dit bericht is 19 minuten geleden gemaakt, om 10:53 UTC
Wind 5 kt uit het zuiden
Temperatuur 15°C
Vochtigheid 51%
Druk 1023 hPa
Zicht: 16.1 km
Geheel bewolkt op 9000 ft

METAR: PATK 191053Z AUTO 18005KT 10SM OVC090 15/05 A3020 RMK AO2 SLP228 T01500050 TSNO

Tijdstip: 03:12 (11:12 UTC)

Verwachting

Dit bericht is 5 uur en het 51 minuten geleden gemaakt, om 05:21 UTC
Verwachting geldig van 19 om 06 UTC tot 20 om 06 UTC
Wind 6 kt uit het zuidzuidwesten
Zicht: 10 km
Weinig wolken op 6000 ft
Verspreide wolken op 20000 ft

TAF: PATK 190521Z 1906/2006 20006KT P6SM FEW060 SCT200

Waarnemingen en weersverwachtingen van meer dan 4000 vliegvelden (METAR en TAF).

De beschikbare stations zijn de gele en rode punten op de kaart.

Ga met uw muis naar het station om de naam te zien.

Klik dan om waarnemingen en weersverwachtingen te zien.

kaart wijzigen: klik op de groene knoppen met een zwart kruis om in te zoomen, op de groene knop met een streepje om uit te zoomen of op de groene pijlen voor aangrenzende kaarten.


METAR-TAF: